sensor_id;sensor_type;location;lat;lon;timestamp;P1;durP1;ratioP1;P2;durP2;ratioP2
13834;SDS011;6988;52.614;13.500;2023-12-04T00:02:20;69.43;;;19.53;;
13834;SDS011;6988;52.614;13.500;2023-12-04T00:07:12;21.77;;;16.87;;
13834;SDS011;6988;52.614;13.500;2023-12-04T00:12:04;22.43;;;17.83;;
13834;SDS011;6988;52.614;13.500;2023-12-04T00:16:56;23.27;;;17.37;;
13834;SDS011;6988;52.614;13.500;2023-12-04T00:21:49;30.23;;;21.00;;
13834;SDS011;6988;52.614;13.500;2023-12-04T00:26:41;30.03;;;21.40;;
13834;SDS011;6988;52.614;13.500;2023-12-04T00:31:33;25.63;;;19.67;;
13834;SDS011;6988;52.614;13.500;2023-12-04T00:36:25;27.57;;;19.43;;
13834;SDS011;6988;52.614;13.500;2023-12-04T00:41:18;70.90;;;23.33;;
13834;SDS011;6988;52.614;13.500;2023-12-04T00:46:10;27.80;;;20.47;;
13834;SDS011;6988;52.614;13.500;2023-12-04T00:51:02;26.80;;;18.93;;
13834;SDS011;6988;52.614;13.500;2023-12-04T00:55:55;23.30;;;17.70;;
13834;SDS011;6988;52.614;13.500;2023-12-04T01:00:48;26.87;;;19.83;;
13834;SDS011;6988;52.614;13.500;2023-12-04T01:05:41;25.07;;;18.40;;
13834;SDS011;6988;52.614;13.500;2023-12-04T01:10:33;25.83;;;20.03;;
13834;SDS011;6988;52.614;13.500;2023-12-04T01:15:25;25.97;;;19.53;;
13834;SDS011;6988;52.614;13.500;2023-12-04T01:20:19;25.53;;;18.37;;
13834;SDS011;6988;52.614;13.500;2023-12-04T01:25:10;19.77;;;15.20;;
13834;SDS011;6988;52.614;13.500;2023-12-04T01:30:03;21.50;;;16.57;;
13834;SDS011;6988;52.614;13.500;2023-12-04T01:34:58;26.70;;;20.23;;
13834;SDS011;6988;52.614;13.500;2023-12-04T01:39:51;29.17;;;21.40;;
13834;SDS011;6988;52.614;13.500;2023-12-04T01:44:43;28.33;;;20.27;;
13834;SDS011;6988;52.614;13.500;2023-12-04T01:49:35;31.90;;;23.23;;
13834;SDS011;6988;52.614;13.500;2023-12-04T01:54:28;29.30;;;17.27;;
13834;SDS011;6988;52.614;13.500;2023-12-04T01:59:22;33.33;;;18.27;;
13834;SDS011;6988;52.614;13.500;2023-12-04T02:04:16;32.23;;;17.87;;
13834;SDS011;6988;52.614;13.500;2023-12-04T02:09:08;33.13;;;17.93;;
13834;SDS011;6988;52.614;13.500;2023-12-04T02:14:02;32.70;;;18.47;;
13834;SDS011;6988;52.614;13.500;2023-12-04T02:18:55;35.57;;;25.67;;
13834;SDS011;6988;52.614;13.500;2023-12-04T02:23:49;37.27;;;25.30;;
13834;SDS011;6988;52.614;13.500;2023-12-04T02:28:43;38.60;;;26.03;;
13834;SDS011;6988;52.614;13.500;2023-12-04T02:33:45;36.13;;;24.97;;
13834;SDS011;6988;52.614;13.500;2023-12-04T02:38:40;36.70;;;25.43;;
13834;SDS011;6988;52.614;13.500;2023-12-04T02:43:34;38.37;;;26.53;;
13834;SDS011;6988;52.614;13.500;2023-12-04T02:48:26;35.60;;;25.30;;
13834;SDS011;6988;52.614;13.500;2023-12-04T02:53:18;36.83;;;26.20;;
13834;SDS011;6988;52.614;13.500;2023-12-04T02:58:10;36.90;;;24.90;;
13834;SDS011;6988;52.614;13.500;2023-12-04T03:03:03;38.50;;;25.73;;
13834;SDS011;6988;52.614;13.500;2023-12-04T03:07:55;37.67;;;25.33;;
13834;SDS011;6988;52.614;13.500;2023-12-04T03:12:47;34.17;;;18.57;;
13834;SDS011;6988;52.614;13.500;2023-12-04T03:17:39;35.03;;;18.57;;
13834;SDS011;6988;52.614;13.500;2023-12-04T03:22:32;37.03;;;19.07;;
13834;SDS011;6988;52.614;13.500;2023-12-04T03:27:24;34.00;;;18.40;;
13834;SDS011;6988;52.614;13.500;2023-12-04T03:32:16;33.17;;;17.17;;
13834;SDS011;6988;52.614;13.500;2023-12-04T03:37:07;32.77;;;16.87;;
13834;SDS011;6988;52.614;13.500;2023-12-04T03:42:01;34.20;;;17.73;;
13834;SDS011;6988;52.614;13.500;2023-12-04T03:46:53;33.73;;;17.17;;
13834;SDS011;6988;52.614;13.500;2023-12-04T03:51:45;33.40;;;17.27;;
13834;SDS011;6988;52.614;13.500;2023-12-04T03:56:37;31.03;;;16.73;;
13834;SDS011;6988;52.614;13.500;2023-12-04T04:01:30;30.73;;;16.53;;
13834;SDS011;6988;52.614;13.500;2023-12-04T04:06:22;30.93;;;17.43;;
13834;SDS011;6988;52.614;13.500;2023-12-04T04:11:14;30.90;;;15.93;;
13834;SDS011;6988;52.614;13.500;2023-12-04T04:16:06;29.40;;;15.63;;
13834;SDS011;6988;52.614;13.500;2023-12-04T04:21:05;35.73;;;17.70;;
13834;SDS011;6988;52.614;13.500;2023-12-04T04:25:57;31.67;;;16.23;;
13834;SDS011;6988;52.614;13.500;2023-12-04T04:30:49;32.53;;;17.47;;
13834;SDS011;6988;52.614;13.500;2023-12-04T04:35:41;32.00;;;17.57;;
13834;SDS011;6988;52.614;13.500;2023-12-04T04:40:34;35.93;;;17.67;;
13834;SDS011;6988;52.614;13.500;2023-12-04T04:45:26;38.37;;;19.30;;
13834;SDS011;6988;52.614;13.500;2023-12-04T04:50:18;34.90;;;18.20;;
13834;SDS011;6988;52.614;13.500;2023-12-04T04:55:11;34.77;;;17.73;;
13834;SDS011;6988;52.614;13.500;2023-12-04T05:00:05;37.87;;;19.37;;
13834;SDS011;6988;52.614;13.500;2023-12-04T05:05:00;41.47;;;20.70;;
13834;SDS011;6988;52.614;13.500;2023-12-04T05:09:54;35.53;;;19.03;;
13834;SDS011;6988;52.614;13.500;2023-12-04T05:14:46;35.37;;;17.93;;
13834;SDS011;6988;52.614;13.500;2023-12-04T05:19:39;33.87;;;18.27;;
13834;SDS011;6988;52.614;13.500;2023-12-04T05:24:31;30.73;;;16.40;;
13834;SDS011;6988;52.614;13.500;2023-12-04T05:29:23;30.43;;;16.57;;
13834;SDS011;6988;52.614;13.500;2023-12-04T05:34:15;36.13;;;17.87;;
13834;SDS011;6988;52.614;13.500;2023-12-04T05:39:08;32.07;;;16.03;;
13834;SDS011;6988;52.614;13.500;2023-12-04T05:44:00;27.13;;;15.57;;
13834;SDS011;6988;52.614;13.500;2023-12-04T05:48:53;29.70;;;15.93;;
13834;SDS011;6988;52.614;13.500;2023-12-04T05:53:45;28.80;;;15.87;;
13834;SDS011;6988;52.614;13.500;2023-12-04T05:58:39;28.47;;;15.53;;
13834;SDS011;6988;52.614;13.500;2023-12-04T06:03:30;30.47;;;16.10;;
13834;SDS011;6988;52.614;13.500;2023-12-04T06:08:23;31.57;;;15.87;;
13834;SDS011;6988;52.614;13.500;2023-12-04T06:13:15;28.97;;;14.70;;
13834;SDS011;6988;52.614;13.500;2023-12-04T06:18:08;30.80;;;15.57;;
13834;SDS011;6988;52.614;13.500;2023-12-04T06:23:00;27.30;;;15.43;;
13834;SDS011;6988;52.614;13.500;2023-12-04T06:27:53;29.97;;;16.40;;
13834;SDS011;6988;52.614;13.500;2023-12-04T06:32:46;35.03;;;24.27;;
13834;SDS011;6988;52.614;13.500;2023-12-04T06:37:40;38.30;;;19.97;;
13834;SDS011;6988;52.614;13.500;2023-12-04T06:42:34;35.67;;;18.33;;
13834;SDS011;6988;52.614;13.500;2023-12-04T06:47:27;34.67;;;18.17;;
13834;SDS011;6988;52.614;13.500;2023-12-04T06:52:22;33.80;;;18.73;;
13834;SDS011;6988;52.614;13.500;2023-12-04T06:57:15;39.30;;;19.60;;
13834;SDS011;6988;52.614;13.500;2023-12-04T07:02:07;36.63;;;19.97;;
13834;SDS011;6988;52.614;13.500;2023-12-04T07:07:00;38.93;;;19.83;;
13834;SDS011;6988;52.614;13.500;2023-12-04T07:11:55;37.37;;;19.90;;
13834;SDS011;6988;52.614;13.500;2023-12-04T07:16:48;36.67;;;20.70;;
13834;SDS011;6988;52.614;13.500;2023-12-04T07:21:40;37.17;;;20.90;;
13834;SDS011;6988;52.614;13.500;2023-12-04T07:26:32;42.63;;;28.80;;
13834;SDS011;6988;52.614;13.500;2023-12-04T07:31:25;40.17;;;27.90;;
13834;SDS011;6988;52.614;13.500;2023-12-04T07:36:18;39.53;;;27.37;;
13834;SDS011;6988;52.614;13.500;2023-12-04T07:41:11;38.30;;;21.07;;
13834;SDS011;6988;52.614;13.500;2023-12-04T07:46:03;36.47;;;20.37;;
13834;SDS011;6988;52.614;13.500;2023-12-04T07:50:56;41.20;;;28.23;;
13834;SDS011;6988;52.614;13.500;2023-12-04T07:55:49;40.27;;;28.03;;
13834;SDS011;6988;52.614;13.500;2023-12-04T08:00:41;38.47;;;27.60;;
13834;SDS011;6988;52.614;13.500;2023-12-04T08:05:34;37.63;;;27.80;;
13834;SDS011;6988;52.614;13.500;2023-12-04T08:10:28;40.67;;;28.70;;
13834;SDS011;6988;52.614;13.500;2023-12-04T08:15:21;37.23;;;26.90;;
13834;SDS011;6988;52.614;13.500;2023-12-04T08:20:13;38.73;;;27.53;;
13834;SDS011;6988;52.614;13.500;2023-12-04T08:25:06;40.67;;;28.63;;
13834;SDS011;6988;52.614;13.500;2023-12-04T08:29:58;38.13;;;27.60;;
13834;SDS011;6988;52.614;13.500;2023-12-04T08:34:51;37.97;;;27.67;;
13834;SDS011;6988;52.614;13.500;2023-12-04T08:39:43;37.87;;;27.40;;
13834;SDS011;6988;52.614;13.500;2023-12-04T08:44:35;41.43;;;27.13;;
13834;SDS011;6988;52.614;13.500;2023-12-04T08:49:27;36.57;;;26.83;;
13834;SDS011;6988;52.614;13.500;2023-12-04T08:54:20;36.07;;;27.10;;
13834;SDS011;6988;52.614;13.500;2023-12-04T08:59:12;34.80;;;25.93;;
13834;SDS011;6988;52.614;13.500;2023-12-04T09:04:04;37.80;;;27.10;;
13834;SDS011;6988;52.614;13.500;2023-12-04T09:08:58;38.37;;;26.83;;
13834;SDS011;6988;52.614;13.500;2023-12-04T09:13:51;38.50;;;26.90;;
13834;SDS011;6988;52.614;13.500;2023-12-04T09:18:43;39.40;;;27.70;;
13834;SDS011;6988;52.614;13.500;2023-12-04T09:23:36;36.73;;;25.97;;
13834;SDS011;6988;52.614;13.500;2023-12-04T09:28:28;34.23;;;25.07;;
13834;SDS011;6988;52.614;13.500;2023-12-04T09:33:21;33.60;;;24.67;;
13834;SDS011;6988;52.614;13.500;2023-12-04T09:38:13;34.17;;;25.10;;
13834;SDS011;6988;52.614;13.500;2023-12-04T09:43:06;34.23;;;24.60;;
13834;SDS011;6988;52.614;13.500;2023-12-04T09:47:59;31.47;;;23.17;;
13834;SDS011;6988;52.614;13.500;2023-12-04T09:52:52;32.53;;;24.10;;
13834;SDS011;6988;52.614;13.500;2023-12-04T09:57:45;33.80;;;24.97;;
13834;SDS011;6988;52.614;13.500;2023-12-04T10:02:39;31.77;;;23.10;;
13834;SDS011;6988;52.614;13.500;2023-12-04T10:07:32;31.50;;;23.17;;
13834;SDS011;6988;52.614;13.500;2023-12-04T10:12:25;31.77;;;22.80;;
13834;SDS011;6988;52.614;13.500;2023-12-04T10:17:18;32.97;;;22.90;;
13834;SDS011;6988;52.614;13.500;2023-12-04T10:22:11;35.93;;;23.97;;
13834;SDS011;6988;52.614;13.500;2023-12-04T10:27:04;29.37;;;20.90;;
13834;SDS011;6988;52.614;13.500;2023-12-04T10:32:03;30.03;;;20.87;;
13834;SDS011;6988;52.614;13.500;2023-12-04T10:36:55;27.13;;;19.17;;
13834;SDS011;6988;52.614;13.500;2023-12-04T10:41:58;25.83;;;18.00;;
13834;SDS011;6988;52.614;13.500;2023-12-04T10:46:55;24.40;;;17.27;;
13834;SDS011;6988;52.614;13.500;2023-12-04T10:51:50;25.20;;;17.97;;
13834;SDS011;6988;52.614;13.500;2023-12-04T10:56:43;21.77;;;16.60;;
13834;SDS011;6988;52.614;13.500;2023-12-04T11:01:40;23.83;;;16.73;;
13834;SDS011;6988;52.614;13.500;2023-12-04T11:06:37;23.20;;;15.60;;
13834;SDS011;6988;52.614;13.500;2023-12-04T11:11:35;20.37;;;15.03;;
13834;SDS011;6988;52.614;13.500;2023-12-04T11:16:35;20.67;;;15.57;;
13834;SDS011;6988;52.614;13.500;2023-12-04T11:21:37;20.60;;;15.53;;
13834;SDS011;6988;52.614;13.500;2023-12-04T11:26:31;21.70;;;14.93;;
13834;SDS011;6988;52.614;13.500;2023-12-04T11:31:25;18.53;;;13.40;;
13834;SDS011;6988;52.614;13.500;2023-12-04T11:36:18;19.77;;;14.27;;
13834;SDS011;6988;52.614;13.500;2023-12-04T11:41:16;19.90;;;14.00;;
13834;SDS011;6988;52.614;13.500;2023-12-04T11:46:11;20.13;;;13.33;;
13834;SDS011;6988;52.614;13.500;2023-12-04T11:51:05;20.33;;;14.43;;
13834;SDS011;6988;52.614;13.500;2023-12-04T11:55:59;19.13;;;13.13;;
13834;SDS011;6988;52.614;13.500;2023-12-04T12:01:02;19.77;;;14.73;;
13834;SDS011;6988;52.614;13.500;2023-12-04T12:05:54;21.47;;;14.57;;
13834;SDS011;6988;52.614;13.500;2023-12-04T12:15:46;17.80;;;12.63;;
13834;SDS011;6988;52.614;13.500;2023-12-04T12:20:40;16.63;;;11.90;;
13834;SDS011;6988;52.614;13.500;2023-12-04T12:25:32;16.37;;;11.57;;
13834;SDS011;6988;52.614;13.500;2023-12-04T12:30:25;16.97;;;12.37;;
13834;SDS011;6988;52.614;13.500;2023-12-04T12:35:19;17.23;;;12.07;;
13834;SDS011;6988;52.614;13.500;2023-12-04T12:40:11;18.90;;;13.00;;
13834;SDS011;6988;52.614;13.500;2023-12-04T12:45:04;18.13;;;12.77;;
13834;SDS011;6988;52.614;13.500;2023-12-04T12:49:56;17.03;;;13.00;;
13834;SDS011;6988;52.614;13.500;2023-12-04T12:54:50;17.23;;;12.70;;
13834;SDS011;6988;52.614;13.500;2023-12-04T12:59:43;18.03;;;13.00;;
13834;SDS011;6988;52.614;13.500;2023-12-04T13:04:35;19.07;;;13.97;;
13834;SDS011;6988;52.614;13.500;2023-12-04T13:09:28;18.30;;;13.43;;
13834;SDS011;6988;52.614;13.500;2023-12-04T13:14:21;19.70;;;13.77;;
13834;SDS011;6988;52.614;13.500;2023-12-04T13:19:13;18.90;;;14.20;;
13834;SDS011;6988;52.614;13.500;2023-12-04T13:24:07;18.60;;;14.00;;
13834;SDS011;6988;52.614;13.500;2023-12-04T13:29:00;18.33;;;13.30;;
13834;SDS011;6988;52.614;13.500;2023-12-04T13:33:53;18.00;;;13.20;;
13834;SDS011;6988;52.614;13.500;2023-12-04T13:38:45;20.50;;;14.03;;
13834;SDS011;6988;52.614;13.500;2023-12-04T13:43:37;18.20;;;13.73;;
13834;SDS011;6988;52.614;13.500;2023-12-04T13:48:44;21.13;;;14.77;;
13834;SDS011;6988;52.614;13.500;2023-12-04T13:53:38;18.63;;;13.43;;
13834;SDS011;6988;52.614;13.500;2023-12-04T13:58:34;19.90;;;14.27;;
13834;SDS011;6988;52.614;13.500;2023-12-04T14:03:33;19.97;;;14.23;;
13834;SDS011;6988;52.614;13.500;2023-12-04T14:08:25;20.17;;;15.37;;
13834;SDS011;6988;52.614;13.500;2023-12-04T14:13:19;20.23;;;15.07;;
13834;SDS011;6988;52.614;13.500;2023-12-04T14:18:10;22.93;;;16.40;;
13834;SDS011;6988;52.614;13.500;2023-12-04T14:23:03;23.20;;;16.20;;
13834;SDS011;6988;52.614;13.500;2023-12-04T14:27:55;24.53;;;17.50;;
13834;SDS011;6988;52.614;13.500;2023-12-04T14:32:48;24.40;;;17.83;;
13834;SDS011;6988;52.614;13.500;2023-12-04T14:37:40;24.13;;;17.60;;
13834;SDS011;6988;52.614;13.500;2023-12-04T14:42:31;24.07;;;16.60;;
13834;SDS011;6988;52.614;13.500;2023-12-04T14:47:23;24.20;;;17.40;;
13834;SDS011;6988;52.614;13.500;2023-12-04T14:52:16;23.03;;;16.83;;
13834;SDS011;6988;52.614;13.500;2023-12-04T14:57:09;23.63;;;17.43;;
13834;SDS011;6988;52.614;13.500;2023-12-04T15:02:34;24.73;;;17.57;;
13834;SDS011;6988;52.614;13.500;2023-12-04T15:07:58;24.43;;;17.67;;
13834;SDS011;6988;52.614;13.500;2023-12-04T15:13:26;25.23;;;18.00;;
13834;SDS011;6988;52.614;13.500;2023-12-04T15:18:35;22.20;;;16.43;;
13834;SDS011;6988;52.614;13.500;2023-12-04T15:23:33;24.00;;;17.27;;
13834;SDS011;6988;52.614;13.500;2023-12-04T15:28:25;23.13;;;17.33;;
13834;SDS011;6988;52.614;13.500;2023-12-04T15:33:19;24.20;;;17.27;;
13834;SDS011;6988;52.614;13.500;2023-12-04T15:38:12;23.23;;;17.17;;
13834;SDS011;6988;52.614;13.500;2023-12-04T15:43:05;23.27;;;17.13;;
13834;SDS011;6988;52.614;13.500;2023-12-04T15:47:57;23.40;;;17.13;;
13834;SDS011;6988;52.614;13.500;2023-12-04T15:52:49;24.33;;;16.83;;
13834;SDS011;6988;52.614;13.500;2023-12-04T15:57:41;21.97;;;15.97;;
13834;SDS011;6988;52.614;13.500;2023-12-04T16:02:34;21.27;;;15.40;;
13834;SDS011;6988;52.614;13.500;2023-12-04T16:07:26;22.13;;;15.20;;
13834;SDS011;6988;52.614;13.500;2023-12-04T16:12:18;22.93;;;16.53;;
13834;SDS011;6988;52.614;13.500;2023-12-04T16:17:09;21.33;;;15.77;;
13834;SDS011;6988;52.614;13.500;2023-12-04T16:22:03;25.33;;;17.17;;
13834;SDS011;6988;52.614;13.500;2023-12-04T16:26:55;22.93;;;16.90;;
13834;SDS011;6988;52.614;13.500;2023-12-04T16:31:47;22.13;;;17.03;;
13834;SDS011;6988;52.614;13.500;2023-12-04T16:36:38;24.87;;;17.67;;
13834;SDS011;6988;52.614;13.500;2023-12-04T16:41:32;24.43;;;17.13;;
13834;SDS011;6988;52.614;13.500;2023-12-04T16:46:24;25.13;;;18.07;;
13834;SDS011;6988;52.614;13.500;2023-12-04T16:51:15;24.73;;;17.70;;
13834;SDS011;6988;52.614;13.500;2023-12-04T16:56:10;22.97;;;17.00;;
13834;SDS011;6988;52.614;13.500;2023-12-04T17:01:05;23.43;;;17.27;;
13834;SDS011;6988;52.614;13.500;2023-12-04T17:05:57;25.20;;;17.20;;
13834;SDS011;6988;52.614;13.500;2023-12-04T17:10:49;24.07;;;17.37;;
13834;SDS011;6988;52.614;13.500;2023-12-04T17:15:41;24.77;;;18.07;;
13834;SDS011;6988;52.614;13.500;2023-12-04T17:20:34;25.73;;;18.90;;
13834;SDS011;6988;52.614;13.500;2023-12-04T17:25:26;26.37;;;18.63;;
13834;SDS011;6988;52.614;13.500;2023-12-04T17:30:20;25.53;;;19.23;;
13834;SDS011;6988;52.614;13.500;2023-12-04T17:35:13;27.10;;;19.87;;
13834;SDS011;6988;52.614;13.500;2023-12-04T17:40:07;26.37;;;19.20;;
13834;SDS011;6988;52.614;13.500;2023-12-04T17:45:00;27.83;;;18.97;;
13834;SDS011;6988;52.614;13.500;2023-12-04T17:49:52;28.87;;;20.53;;
13834;SDS011;6988;52.614;13.500;2023-12-04T17:54:46;28.90;;;20.10;;
13834;SDS011;6988;52.614;13.500;2023-12-04T17:59:39;27.70;;;19.87;;
13834;SDS011;6988;52.614;13.500;2023-12-04T18:04:31;27.63;;;19.83;;
13834;SDS011;6988;52.614;13.500;2023-12-04T18:09:24;27.93;;;20.30;;
13834;SDS011;6988;52.614;13.500;2023-12-04T18:14:16;29.63;;;20.70;;
13834;SDS011;6988;52.614;13.500;2023-12-04T18:19:09;28.73;;;20.50;;
13834;SDS011;6988;52.614;13.500;2023-12-04T18:24:01;29.17;;;20.70;;
13834;SDS011;6988;52.614;13.500;2023-12-04T18:28:54;28.27;;;20.80;;
13834;SDS011;6988;52.614;13.500;2023-12-04T18:33:46;28.07;;;19.80;;
13834;SDS011;6988;52.614;13.500;2023-12-04T18:38:42;28.33;;;20.30;;
13834;SDS011;6988;52.614;13.500;2023-12-04T18:43:42;28.43;;;20.97;;
13834;SDS011;6988;52.614;13.500;2023-12-04T18:48:34;30.10;;;21.40;;
13834;SDS011;6988;52.614;13.500;2023-12-04T18:53:30;29.53;;;22.13;;
13834;SDS011;6988;52.614;13.500;2023-12-04T18:58:24;29.10;;;21.83;;
13834;SDS011;6988;52.614;13.500;2023-12-04T19:03:17;29.57;;;21.63;;
13834;SDS011;6988;52.614;13.500;2023-12-04T19:08:09;28.43;;;22.33;;
13834;SDS011;6988;52.614;13.500;2023-12-04T19:13:01;28.37;;;22.40;;
13834;SDS011;6988;52.614;13.500;2023-12-04T19:17:54;28.60;;;21.47;;
13834;SDS011;6988;52.614;13.500;2023-12-04T19:22:46;30.67;;;23.70;;
13834;SDS011;6988;52.614;13.500;2023-12-04T19:27:38;28.47;;;21.47;;
13834;SDS011;6988;52.614;13.500;2023-12-04T19:32:30;29.87;;;22.70;;
13834;SDS011;6988;52.614;13.500;2023-12-04T19:37:23;28.60;;;21.93;;
13834;SDS011;6988;52.614;13.500;2023-12-04T19:42:15;28.40;;;22.40;;
13834;SDS011;6988;52.614;13.500;2023-12-04T19:47:07;32.13;;;22.57;;
13834;SDS011;6988;52.614;13.500;2023-12-04T19:51:59;30.27;;;22.87;;
13834;SDS011;6988;52.614;13.500;2023-12-04T19:56:53;30.93;;;22.90;;
13834;SDS011;6988;52.614;13.500;2023-12-04T20:01:45;31.67;;;23.77;;
13834;SDS011;6988;52.614;13.500;2023-12-04T20:06:37;32.23;;;23.23;;
13834;SDS011;6988;52.614;13.500;2023-12-04T20:11:29;33.43;;;23.57;;
13834;SDS011;6988;52.614;13.500;2023-12-04T20:16:22;34.53;;;25.07;;
13834;SDS011;6988;52.614;13.500;2023-12-04T20:21:14;33.00;;;24.70;;
13834;SDS011;6988;52.614;13.500;2023-12-04T20:26:06;34.43;;;25.80;;
13834;SDS011;6988;52.614;13.500;2023-12-04T20:30:58;35.00;;;26.20;;
13834;SDS011;6988;52.614;13.500;2023-12-04T20:35:52;37.37;;;27.50;;
13834;SDS011;6988;52.614;13.500;2023-12-04T20:40:44;35.50;;;27.30;;
13834;SDS011;6988;52.614;13.500;2023-12-04T20:45:38;39.40;;;28.47;;
13834;SDS011;6988;52.614;13.500;2023-12-04T20:50:31;36.50;;;26.80;;
13834;SDS011;6988;52.614;13.500;2023-12-04T20:55:25;41.17;;;29.40;;
13834;SDS011;6988;52.614;13.500;2023-12-04T21:00:17;42.50;;;29.07;;
13834;SDS011;6988;52.614;13.500;2023-12-04T21:05:10;41.67;;;29.23;;
13834;SDS011;6988;52.614;13.500;2023-12-04T21:10:02;42.80;;;29.83;;
13834;SDS011;6988;52.614;13.500;2023-12-04T21:14:57;41.63;;;29.47;;
13834;SDS011;6988;52.614;13.500;2023-12-04T21:19:49;38.77;;;27.87;;
13834;SDS011;6988;52.614;13.500;2023-12-04T21:24:41;39.57;;;28.60;;
13834;SDS011;6988;52.614;13.500;2023-12-04T21:29:33;41.40;;;30.40;;
13834;SDS011;6988;52.614;13.500;2023-12-04T21:34:26;40.77;;;29.47;;
13834;SDS011;6988;52.614;13.500;2023-12-04T21:39:18;41.33;;;30.70;;
13834;SDS011;6988;52.614;13.500;2023-12-04T21:44:10;43.07;;;29.87;;
13834;SDS011;6988;52.614;13.500;2023-12-04T21:49:01;44.03;;;31.70;;
13834;SDS011;6988;52.614;13.500;2023-12-04T21:53:55;42.93;;;31.37;;
13834;SDS011;6988;52.614;13.500;2023-12-04T21:58:47;41.90;;;30.77;;
13834;SDS011;6988;52.614;13.500;2023-12-04T22:03:38;40.00;;;30.13;;
13834;SDS011;6988;52.614;13.500;2023-12-04T22:08:30;42.37;;;30.63;;
13834;SDS011;6988;52.614;13.500;2023-12-04T22:13:23;44.47;;;32.03;;
13834;SDS011;6988;52.614;13.500;2023-12-04T22:18:15;43.23;;;31.87;;
13834;SDS011;6988;52.614;13.500;2023-12-04T22:23:07;44.67;;;32.47;;
13834;SDS011;6988;52.614;13.500;2023-12-04T22:27:59;42.47;;;30.50;;
13834;SDS011;6988;52.614;13.500;2023-12-04T22:32:52;45.13;;;30.83;;
13834;SDS011;6988;52.614;13.500;2023-12-04T22:37:44;45.23;;;32.70;;
13834;SDS011;6988;52.614;13.500;2023-12-04T22:42:38;45.70;;;32.57;;
13834;SDS011;6988;52.614;13.500;2023-12-04T23:03:42;44.40;;;32.60;;
13834;SDS011;6988;52.614;13.500;2023-12-04T23:08:34;47.10;;;33.47;;
13834;SDS011;6988;52.614;13.500;2023-12-04T23:13:26;45.13;;;33.50;;
13834;SDS011;6988;52.614;13.500;2023-12-04T23:18:18;43.97;;;32.73;;
13834;SDS011;6988;52.614;13.500;2023-12-04T23:23:11;42.47;;;31.50;;
13834;SDS011;6988;52.614;13.500;2023-12-04T23:28:03;46.73;;;32.80;;
13834;SDS011;6988;52.614;13.500;2023-12-04T23:32:54;42.23;;;31.67;;
13834;SDS011;6988;52.614;13.500;2023-12-04T23:37:46;45.77;;;32.57;;
13834;SDS011;6988;52.614;13.500;2023-12-04T23:42:40;44.23;;;32.40;;
13834;SDS011;6988;52.614;13.500;2023-12-04T23:47:32;44.07;;;31.33;;
13834;SDS011;6988;52.614;13.500;2023-12-04T23:52:24;42.70;;;31.50;;
13834;SDS011;6988;52.614;13.500;2023-12-04T23:57:16;43.97;;;31.83;;
